createdAt,value
2018-12-11T00:01:42.585Z,2.47
2018-12-11T00:04:10.882Z,2.27
2018-12-11T00:06:39.400Z,2.90
2018-12-11T00:09:07.632Z,1.95
2018-12-11T00:11:36.080Z,2.30
2018-12-11T00:14:04.550Z,2.27
2018-12-11T00:16:32.902Z,2.23
2018-12-11T00:19:01.402Z,2.10
2018-12-11T00:21:30.186Z,2.37
2018-12-11T00:23:58.397Z,2.63
2018-12-11T00:26:26.698Z,1.80
2018-12-11T00:28:54.978Z,2.70
2018-12-11T00:31:23.430Z,2.30
2018-12-11T00:33:51.610Z,2.13
2018-12-11T00:36:20.228Z,6.07
2018-12-11T00:38:48.393Z,4.90
2018-12-11T00:41:16.894Z,2.70
2018-12-11T00:43:45.173Z,2.80
2018-12-11T00:46:13.445Z,2.40
2018-12-11T00:48:41.817Z,2.50
2018-12-11T00:51:10.046Z,2.30
2018-12-11T00:53:38.380Z,2.27
2018-12-11T00:56:06.633Z,2.00
2018-12-11T00:58:35.002Z,2.10
2018-12-11T01:01:03.339Z,2.03
2018-12-11T01:03:31.542Z,2.13
2018-12-11T01:05:59.865Z,2.30
2018-12-11T01:08:28.096Z,2.20
2018-12-11T01:10:56.442Z,2.73
2018-12-11T01:13:25.060Z,2.60
2018-12-11T01:15:53.270Z,2.13
2018-12-11T01:18:21.485Z,2.63
2018-12-11T01:20:50.353Z,2.45
2018-12-11T01:23:18.545Z,2.33
2018-12-11T01:25:46.859Z,2.83
2018-12-11T01:28:15.105Z,2.70
2018-12-11T01:30:43.466Z,2.00
2018-12-11T01:33:11.647Z,2.70
2018-12-11T01:35:39.844Z,1.93
2018-12-11T01:38:08.097Z,2.10
2018-12-11T01:40:36.310Z,2.60
2018-12-11T01:43:04.643Z,2.47
2018-12-11T01:45:32.892Z,2.30
2018-12-11T01:48:06.337Z,1.80
2018-12-11T01:50:34.561Z,2.70
2018-12-11T01:53:02.860Z,1.90
2018-12-11T01:55:31.082Z,2.07
2018-12-11T01:57:59.441Z,2.10
2018-12-11T02:00:27.669Z,2.00
2018-12-11T02:02:56.061Z,1.70
2018-12-11T02:05:24.360Z,1.80
2018-12-11T02:07:53.258Z,1.70
2018-12-11T02:10:21.553Z,1.97
2018-12-11T02:12:49.918Z,2.20
2018-12-11T02:15:18.201Z,2.63
2018-12-11T02:17:46.556Z,2.37
2018-12-11T02:20:14.786Z,1.50
2018-12-11T02:22:42.964Z,1.90
2018-12-11T02:25:11.402Z,1.60
2018-12-11T02:27:40.333Z,1.80
2018-12-11T02:30:08.575Z,1.63
2018-12-11T02:32:36.795Z,1.87
2018-12-11T02:35:05.662Z,1.83
2018-12-11T02:37:33.887Z,1.50
2018-12-11T02:40:02.153Z,1.60
2018-12-11T02:42:30.791Z,1.60
2018-12-11T02:44:59.108Z,1.30
2018-12-11T02:47:27.312Z,2.00
2018-12-11T02:49:55.609Z,1.60
2018-12-11T02:52:23.880Z,1.70
2018-12-11T02:54:52.141Z,1.50
2018-12-11T02:57:20.559Z,1.53
2018-12-11T02:59:48.758Z,1.50
2018-12-11T03:02:16.938Z,1.70
2018-12-11T03:04:45.177Z,1.77
2018-12-11T03:07:13.596Z,1.40
2018-12-11T03:09:42.351Z,1.30
2018-12-11T03:12:10.660Z,1.40
2018-12-11T03:14:38.974Z,1.77
2018-12-11T03:17:07.174Z,1.27
2018-12-11T03:19:35.439Z,1.60
2018-12-11T03:22:03.627Z,1.53
2018-12-11T03:24:31.797Z,1.80
2018-12-11T03:27:00.391Z,1.70
2018-12-11T03:29:28.644Z,1.60
2018-12-11T03:31:56.844Z,1.80
2018-12-11T03:34:25.132Z,1.70
2018-12-11T03:36:53.324Z,1.60
2018-12-11T03:39:21.489Z,1.90
2018-12-11T03:41:50.020Z,1.65
2018-12-11T03:44:18.226Z,1.73
2018-12-11T03:46:46.805Z,1.53
2018-12-11T03:49:15.021Z,1.93
2018-12-11T03:51:43.668Z,1.83
2018-12-11T03:54:12.574Z,1.80
2018-12-11T03:56:40.781Z,1.47
2018-12-11T03:59:09.119Z,2.17
2018-12-11T04:01:37.377Z,1.80
2018-12-11T04:04:05.674Z,1.50
2018-12-11T04:06:33.867Z,1.30
2018-12-11T04:09:02.106Z,2.12
2018-12-11T04:11:30.339Z,1.60
2018-12-11T04:13:58.570Z,1.57
2018-12-11T04:16:26.850Z,1.60
2018-12-11T04:18:55.337Z,1.30
2018-12-11T04:21:23.531Z,1.50
2018-12-11T04:23:51.834Z,2.07
2018-12-11T04:26:20.050Z,1.70
2018-12-11T04:28:48.244Z,1.50
2018-12-11T04:31:16.492Z,1.50
2018-12-11T04:33:44.662Z,1.67
2018-12-11T04:36:12.905Z,1.60
2018-12-11T04:38:41.113Z,1.80
2018-12-11T04:41:09.333Z,2.27
2018-12-11T04:43:37.488Z,2.10
2018-12-11T04:46:05.690Z,1.60
2018-12-11T04:48:34.146Z,1.63
2018-12-11T04:51:02.321Z,1.70
2018-12-11T04:53:30.517Z,1.77
2018-12-11T04:55:58.677Z,1.80
2018-12-11T04:58:26.825Z,1.30
2018-12-11T05:00:55.227Z,1.40
2018-12-11T05:03:23.576Z,1.90
2018-12-11T05:05:51.804Z,1.63
2018-12-11T05:08:20.164Z,1.53
2018-12-11T05:10:48.313Z,1.70
2018-12-11T05:13:16.626Z,2.10
2018-12-11T05:15:44.832Z,1.53
2018-12-11T05:18:13.185Z,1.70
2018-12-11T05:20:41.533Z,1.50
2018-12-11T05:23:09.684Z,1.53
2018-12-11T05:25:38.178Z,1.43
2018-12-11T05:28:06.383Z,1.80
2018-12-11T05:30:34.818Z,1.60
2018-12-11T05:33:03.261Z,1.73
2018-12-11T05:35:31.425Z,1.70
2018-12-11T05:37:59.673Z,1.73
2018-12-11T05:40:27.856Z,1.40
2018-12-11T05:42:56.158Z,1.70
2018-12-11T05:45:24.314Z,1.40
2018-12-11T05:47:52.639Z,2.00
2018-12-11T05:50:21.054Z,1.57
2018-12-11T05:52:49.216Z,1.80
2018-12-11T05:55:17.489Z,1.77
2018-12-11T05:57:45.901Z,1.87
2018-12-11T06:00:14.089Z,1.90
2018-12-11T06:02:42.267Z,2.13
2018-12-11T06:05:10.688Z,1.90
2018-12-11T06:07:38.869Z,2.07
2018-12-11T06:10:08.066Z,1.93
2018-12-11T06:12:36.318Z,1.70
2018-12-11T06:15:04.870Z,1.80
2018-12-11T06:17:33.073Z,1.70
2018-12-11T06:20:01.332Z,2.00
2018-12-11T06:22:29.693Z,1.70
2018-12-11T06:24:58.113Z,2.43
2018-12-11T06:27:26.868Z,1.80
2018-12-11T06:29:55.085Z,2.03
2018-12-11T06:32:23.414Z,1.83
2018-12-11T06:34:51.605Z,2.03
2018-12-11T06:37:19.975Z,1.53
2018-12-11T06:39:48.307Z,1.77
2018-12-11T06:42:17.409Z,1.83
2018-12-11T06:44:46.463Z,1.77
2018-12-11T06:47:14.642Z,1.87
2018-12-11T06:49:43.182Z,1.77
2018-12-11T06:52:11.605Z,1.80
2018-12-11T06:54:39.855Z,2.00
2018-12-11T06:57:08.146Z,1.57
2018-12-11T06:59:36.399Z,2.00
2018-12-11T07:02:04.618Z,1.87
2018-12-11T07:04:32.791Z,1.90
2018-12-11T07:07:01.169Z,2.03
2018-12-11T07:09:29.358Z,1.80
2018-12-11T07:11:57.663Z,3.53
2018-12-11T07:14:25.835Z,4.70
2018-12-11T07:16:54.130Z,2.80
2018-12-11T07:19:22.313Z,1.80
2018-12-11T07:21:50.578Z,1.47
2018-12-11T07:24:18.826Z,1.67
2018-12-11T07:26:47.061Z,2.20
2018-12-11T07:29:15.289Z,1.63
2018-12-11T07:31:43.659Z,2.13
2018-12-11T07:34:11.898Z,1.40
2018-12-11T07:36:40.127Z,1.90
2018-12-11T07:39:08.329Z,1.77
2018-12-11T07:41:36.514Z,2.00
2018-12-11T07:44:04.747Z,2.20
2018-12-11T07:46:33.077Z,1.60
2018-12-11T07:49:01.245Z,1.80
2018-12-11T07:51:29.625Z,1.70
2018-12-11T07:53:58.758Z,2.03
2018-12-11T07:56:27.198Z,2.10
2018-12-11T07:58:55.382Z,1.80
2018-12-11T08:01:23.587Z,2.07
2018-12-11T08:03:51.990Z,1.90
2018-12-11T08:06:20.173Z,1.70
2018-12-11T08:08:48.374Z,2.07
2018-12-11T08:11:16.585Z,2.20
2018-12-11T08:13:44.821Z,2.23
2018-12-11T08:16:13.940Z,2.10
2018-12-11T08:18:42.365Z,2.23
2018-12-11T08:21:10.595Z,2.47
2018-12-11T08:23:38.774Z,2.47
2018-12-11T08:26:06.948Z,2.10
2018-12-11T08:28:36.107Z,2.27
2018-12-11T08:31:04.488Z,2.17
2018-12-11T08:33:32.904Z,2.27
2018-12-11T08:36:01.741Z,1.97
2018-12-11T08:38:30.056Z,2.10
2018-12-11T08:40:58.457Z,3.00
2018-12-11T08:43:26.722Z,2.00
2018-12-11T08:45:54.911Z,1.93
2018-12-11T08:48:23.175Z,2.80
2018-12-11T08:50:51.578Z,1.90
2018-12-11T08:53:19.882Z,2.10
2018-12-11T08:55:48.134Z,2.10
2018-12-11T08:58:16.659Z,1.90
2018-12-11T09:00:45.106Z,1.90
2018-12-11T09:03:13.381Z,1.87
2018-12-11T09:05:41.657Z,1.87
2018-12-11T09:08:09.841Z,1.90
2018-12-11T09:10:38.077Z,1.80
2018-12-11T09:13:06.448Z,1.83
2018-12-11T09:15:34.740Z,2.30
2018-12-11T09:18:03.723Z,1.80
2018-12-11T09:20:31.898Z,2.03
2018-12-11T09:23:00.168Z,2.17
2018-12-11T09:25:28.329Z,1.90
2018-12-11T09:27:56.525Z,2.57
2018-12-11T09:30:24.807Z,2.10
2018-12-11T09:32:53.011Z,2.30
2018-12-11T09:35:21.366Z,2.00
2018-12-11T09:37:49.573Z,2.40
2018-12-11T09:40:24.380Z,2.27
2018-12-11T09:42:48.357Z,2.43
2018-12-11T09:45:16.757Z,2.40
2018-12-11T09:47:45.004Z,2.00
2018-12-11T09:50:13.168Z,1.97
2018-12-11T09:52:41.480Z,2.50
2018-12-11T09:55:09.680Z,2.17
2018-12-11T09:57:37.910Z,2.10
2018-12-11T10:00:07.739Z,1.97
2018-12-11T10:02:35.997Z,2.20
2018-12-11T10:05:04.704Z,2.30
2018-12-11T10:07:32.943Z,2.07
2018-12-11T10:10:01.159Z,2.10
2018-12-11T10:12:29.379Z,2.80
2018-12-11T10:14:57.704Z,2.20
2018-12-11T10:17:25.888Z,2.23
2018-12-11T10:19:54.083Z,1.80
2018-12-11T10:22:22.430Z,2.20
2018-12-11T10:24:50.628Z,2.00
2018-12-11T10:27:19.173Z,2.00
2018-12-11T10:29:47.436Z,1.90
2018-12-11T10:32:16.041Z,2.47
2018-12-11T10:34:44.321Z,2.00
2018-12-11T10:37:12.644Z,2.87
2018-12-11T10:39:40.890Z,2.57
2018-12-11T10:42:09.089Z,2.00
2018-12-11T10:44:37.438Z,2.47
2018-12-11T10:47:05.695Z,2.73
2018-12-11T10:49:33.893Z,2.67
2018-12-11T10:52:02.149Z,2.17
2018-12-11T10:54:30.321Z,2.10
2018-12-11T10:56:58.741Z,2.53
2018-12-11T10:59:26.976Z,2.10
2018-12-11T11:01:57.324Z,2.10
2018-12-11T11:04:25.604Z,2.20
2018-12-11T11:06:53.877Z,2.43
2018-12-11T11:09:22.053Z,2.53
2018-12-11T11:11:50.274Z,2.40
2018-12-11T11:14:18.423Z,2.43
2018-12-11T11:16:46.790Z,2.70
2018-12-11T11:19:14.958Z,2.23
2018-12-11T11:21:43.125Z,2.50
2018-12-11T11:24:11.410Z,2.53
2018-12-11T11:26:39.654Z,2.03
2018-12-11T11:29:07.962Z,2.27
2018-12-11T11:31:36.179Z,2.70
2018-12-11T11:34:04.406Z,3.07
2018-12-11T11:36:32.613Z,2.27
2018-12-11T11:39:00.824Z,2.30
2018-12-11T11:41:29.260Z,2.90
2018-12-11T11:43:57.926Z,2.47
2018-12-11T11:46:26.390Z,3.33
2018-12-11T11:48:54.682Z,2.50
2018-12-11T11:51:23.141Z,2.20
2018-12-11T11:53:51.482Z,2.63
2018-12-11T11:56:19.736Z,2.60
2018-12-11T11:58:48.022Z,2.53
2018-12-11T12:01:16.194Z,2.47
2018-12-11T12:03:44.463Z,2.60
2018-12-11T12:06:12.731Z,2.53
2018-12-11T12:08:40.914Z,2.80
2018-12-11T12:11:09.277Z,2.27
2018-12-11T12:13:37.535Z,3.00
2018-12-11T12:16:05.855Z,2.80
2018-12-11T12:18:34.218Z,2.87
2018-12-11T12:21:02.416Z,3.20
2018-12-11T12:23:30.572Z,2.67
2018-12-11T12:25:59.377Z,2.43
2018-12-11T12:28:27.720Z,2.83
2018-12-11T12:30:58.440Z,2.57
2018-12-11T12:33:26.671Z,2.60
2018-12-11T12:35:54.853Z,2.23
2018-12-11T12:38:23.377Z,2.40
2018-12-11T12:40:51.596Z,2.30
2018-12-11T12:43:19.850Z,2.47
2018-12-11T12:45:48.094Z,2.67
2018-12-11T12:48:16.385Z,3.30
2018-12-11T12:50:45.345Z,2.50
2018-12-11T12:53:14.518Z,2.37
2018-12-11T12:55:42.719Z,2.40
2018-12-11T12:58:10.947Z,3.00
2018-12-11T13:00:39.468Z,2.60
2018-12-11T13:03:07.710Z,2.50
2018-12-11T13:05:35.944Z,3.07
2018-12-11T13:08:04.265Z,2.97
2018-12-11T13:10:33.743Z,2.87
2018-12-11T13:13:02.305Z,2.57
2018-12-11T13:15:30.594Z,2.90
2018-12-11T13:17:58.963Z,2.57
2018-12-11T13:20:27.616Z,2.37
2018-12-11T13:22:55.842Z,3.17
2018-12-11T13:25:24.052Z,3.13
2018-12-11T13:27:52.405Z,2.30
2018-12-11T13:30:20.603Z,2.87
2018-12-11T13:32:48.788Z,2.70
2018-12-11T13:35:16.977Z,2.87
2018-12-11T13:37:45.426Z,2.30
2018-12-11T13:40:13.749Z,2.80
2018-12-11T13:42:42.000Z,2.63
2018-12-11T13:45:10.273Z,2.77
2018-12-11T13:47:38.478Z,2.90
2018-12-11T13:50:06.807Z,2.90
2018-12-11T13:52:35.052Z,3.10
2018-12-11T13:55:04.095Z,2.80
2018-12-11T13:57:32.801Z,2.63
2018-12-11T14:00:01.031Z,2.53
2018-12-11T14:02:29.501Z,2.50
2018-12-11T14:04:58.770Z,3.27
2018-12-11T14:07:27.244Z,3.23
2018-12-11T14:09:56.048Z,3.20
2018-12-11T14:12:24.417Z,2.83
2018-12-11T14:14:52.691Z,3.23
2018-12-11T14:17:21.141Z,2.93
2018-12-11T14:19:49.340Z,2.97
2018-12-11T14:22:17.772Z,3.00
2018-12-11T14:24:46.054Z,3.20
2018-12-11T14:27:14.271Z,2.80
2018-12-11T14:29:42.540Z,2.67
2018-12-11T14:32:11.555Z,2.90
2018-12-11T14:34:39.859Z,2.93
2018-12-11T14:37:08.198Z,3.50
2018-12-11T14:39:36.633Z,3.03
2018-12-11T14:42:04.917Z,3.37
2018-12-11T14:44:33.341Z,2.77
2018-12-11T14:47:01.618Z,2.73
2018-12-11T14:49:30.311Z,2.73
2018-12-11T14:51:58.865Z,2.63
2018-12-11T14:54:27.257Z,2.60
2018-12-11T14:56:55.473Z,2.60
2018-12-11T14:59:23.889Z,2.87
2018-12-11T15:01:52.164Z,2.43
2018-12-11T15:04:21.280Z,2.43
2018-12-11T15:06:49.548Z,2.47
2018-12-11T15:09:23.088Z,3.30
2018-12-11T15:11:51.317Z,3.23
2018-12-11T15:14:19.628Z,2.40
2018-12-11T15:16:47.938Z,2.67
2018-12-11T15:19:16.237Z,2.73
2018-12-11T15:21:44.570Z,2.80
2018-12-11T15:24:12.836Z,3.10
2018-12-11T15:26:41.193Z,3.10
2018-12-11T15:29:10.558Z,3.10
2018-12-11T15:31:38.840Z,2.70
2018-12-11T15:34:07.175Z,3.30
2018-12-11T15:36:35.392Z,3.20
2018-12-11T15:39:05.216Z,2.90
2018-12-11T15:41:33.642Z,2.80
2018-12-11T15:44:01.845Z,3.30
2018-12-11T15:46:30.156Z,3.87
2018-12-11T15:48:58.510Z,2.80
2018-12-11T15:51:26.771Z,2.60
2018-12-11T15:53:55.023Z,2.90
2018-12-11T15:56:24.133Z,2.90
2018-12-11T15:58:52.593Z,2.93
2018-12-11T16:01:20.894Z,2.90
2018-12-11T16:03:49.131Z,2.73
2018-12-11T16:06:17.481Z,2.77
2018-12-11T16:08:45.947Z,2.72
2018-12-11T16:11:14.735Z,2.87
2018-12-11T16:13:43.395Z,2.77
2018-12-11T16:16:12.028Z,2.30
2018-12-11T16:18:40.371Z,2.67
2018-12-11T16:21:08.557Z,2.70
2018-12-11T16:23:36.942Z,3.43
2018-12-11T16:26:05.147Z,2.30
2018-12-11T16:28:33.707Z,2.83
2018-12-11T16:31:02.150Z,2.93
2018-12-11T16:33:30.449Z,4.60
2018-12-11T16:35:58.743Z,3.20
2018-12-11T16:38:28.370Z,2.77
2018-12-11T16:40:56.813Z,3.20
2018-12-11T16:43:26.011Z,2.80
2018-12-11T16:45:54.313Z,3.27
2018-12-11T16:48:22.764Z,2.90
2018-12-11T16:50:50.966Z,3.07
2018-12-11T16:53:19.436Z,2.63
2018-12-11T16:55:47.841Z,2.93
2018-12-11T16:58:16.278Z,3.00
2018-12-11T17:00:48.826Z,4.00
2018-12-11T17:03:17.460Z,3.10
2018-12-11T17:05:46.048Z,2.77
2018-12-11T17:08:14.244Z,3.67
2018-12-11T17:10:42.506Z,3.37
2018-12-11T17:13:10.872Z,3.57
2018-12-11T17:15:39.213Z,3.23
2018-12-11T17:18:07.514Z,3.20
2018-12-11T17:20:35.999Z,3.43
2018-12-11T17:23:04.435Z,3.40
2018-12-11T17:25:32.776Z,4.08
2018-12-11T17:28:01.014Z,3.80
2018-12-11T17:30:29.396Z,3.60
2018-12-11T17:32:57.717Z,3.13
2018-12-11T17:35:25.983Z,2.80
2018-12-11T17:37:54.496Z,3.13
2018-12-11T17:40:22.769Z,3.10
2018-12-11T17:42:51.211Z,2.97
2018-12-11T17:45:19.640Z,2.93
2018-12-11T17:47:48.009Z,3.50
2018-12-11T17:50:17.308Z,3.27
2018-12-11T17:52:45.552Z,3.40
2018-12-11T17:55:13.807Z,3.10
2018-12-11T17:57:42.226Z,3.07
2018-12-11T18:00:10.624Z,3.27
2018-12-11T18:02:39.255Z,2.97
2018-12-11T18:05:07.790Z,3.00
2018-12-11T18:07:36.207Z,2.67
2018-12-11T18:10:05.188Z,3.13
2018-12-11T18:12:33.574Z,3.40
2018-12-11T18:15:01.921Z,3.67
2018-12-11T18:17:30.941Z,3.80
2018-12-11T18:19:59.815Z,3.03
2018-12-11T18:22:28.152Z,3.00
2018-12-11T18:24:56.627Z,3.50
2018-12-11T18:27:24.939Z,3.60
2018-12-11T18:29:53.243Z,3.67
2018-12-11T18:32:25.059Z,3.07
2018-12-11T18:34:53.201Z,3.17
2018-12-11T18:37:22.388Z,3.17
2018-12-11T18:39:50.734Z,3.10
2018-12-11T18:42:19.087Z,3.60
2018-12-11T18:44:47.401Z,3.47
2018-12-11T18:47:16.035Z,3.30
2018-12-11T18:49:44.643Z,3.70
2018-12-11T18:52:17.231Z,3.10
2018-12-11T18:54:47.477Z,3.10
2018-12-11T18:57:19.036Z,3.67
2018-12-11T18:59:47.519Z,3.07
2018-12-11T19:02:16.018Z,3.60
2018-12-11T19:04:44.449Z,3.72
2018-12-11T19:07:12.917Z,4.08
2018-12-11T19:09:41.472Z,3.03
2018-12-11T19:12:10.142Z,3.10
2018-12-11T19:14:38.679Z,3.90
2018-12-11T19:17:07.420Z,2.83
2018-12-11T19:19:35.768Z,4.00
2018-12-11T19:22:05.121Z,2.67
2018-12-11T19:24:38.655Z,4.23
2018-12-11T19:27:07.889Z,4.28
2018-12-11T19:29:36.094Z,3.60
2018-12-11T19:32:05.136Z,3.43
2018-12-11T19:34:33.731Z,3.37
2018-12-11T19:37:02.083Z,3.97
2018-12-11T19:39:30.490Z,3.70
2018-12-11T19:41:59.084Z,3.17
2018-12-11T19:44:27.489Z,3.50
2018-12-11T19:46:56.267Z,2.93
2018-12-11T19:49:24.539Z,3.40
2018-12-11T19:51:53.346Z,3.70
2018-12-11T19:54:21.954Z,3.70
2018-12-11T19:56:50.457Z,3.80
2018-12-11T19:59:20.303Z,3.70
2018-12-11T20:01:48.900Z,3.50
2018-12-11T20:04:17.905Z,3.70
2018-12-11T20:06:46.834Z,4.13
2018-12-11T20:09:15.288Z,3.63
2018-12-11T20:11:46.177Z,3.67
2018-12-11T20:14:14.759Z,3.50
2018-12-11T20:16:43.372Z,4.43
2018-12-11T20:19:12.660Z,3.60
2018-12-11T20:21:41.741Z,3.40
2018-12-11T20:24:11.079Z,3.33
2018-12-11T20:26:42.000Z,4.27
2018-12-11T20:29:11.195Z,3.87
2018-12-11T20:31:41.320Z,3.53
2018-12-11T20:34:10.929Z,3.57
2018-12-11T20:36:39.836Z,3.57
2018-12-11T20:39:08.759Z,4.00
2018-12-11T20:41:38.474Z,3.47
2018-12-11T20:44:07.827Z,3.77
2018-12-11T20:46:36.180Z,3.83
2018-12-11T20:49:05.521Z,3.20
2018-12-11T20:51:33.885Z,3.37
2018-12-11T20:54:02.214Z,3.63
2018-12-11T20:56:31.965Z,3.93
2018-12-11T20:59:00.532Z,3.60
2018-12-11T21:01:30.820Z,3.65
2018-12-11T21:04:04.317Z,3.83
2018-12-11T21:06:33.506Z,3.80
2018-12-11T21:09:02.781Z,4.15
2018-12-11T21:11:32.027Z,3.43
2018-12-11T21:14:01.603Z,3.47
2018-12-11T21:16:30.648Z,3.37
2018-12-11T21:19:01.541Z,3.70
2018-12-11T21:21:30.187Z,3.20
2018-12-11T21:23:58.937Z,4.00
2018-12-11T21:26:27.975Z,3.57
2018-12-11T21:28:56.431Z,4.40
2018-12-11T21:31:24.955Z,3.83
2018-12-11T21:33:53.663Z,3.30
2018-12-11T21:36:22.322Z,3.80
2018-12-11T21:38:50.936Z,3.33
2018-12-11T21:41:19.378Z,3.97
2018-12-11T21:43:48.178Z,3.53
2018-12-11T21:46:16.539Z,4.43
2018-12-11T21:48:45.029Z,3.70
2018-12-11T21:51:13.523Z,4.83
2018-12-11T21:53:42.427Z,3.90
2018-12-11T21:56:12.794Z,4.30
2018-12-11T21:58:41.951Z,3.87
2018-12-11T22:01:10.449Z,3.63
2018-12-11T22:03:38.777Z,4.20
2018-12-11T22:06:07.221Z,4.13
2018-12-11T22:08:39.952Z,4.77
2018-12-11T22:11:09.100Z,5.37
2018-12-11T22:13:38.898Z,4.13
2018-12-11T22:16:07.716Z,4.70
2018-12-11T22:18:36.252Z,4.00
2018-12-11T22:21:04.753Z,4.43
2018-12-11T22:23:33.622Z,4.33
2018-12-11T22:26:02.120Z,4.20
2018-12-11T22:28:30.495Z,4.33
2018-12-11T22:30:58.874Z,4.13
2018-12-11T22:33:27.224Z,4.20
2018-12-11T22:35:55.683Z,4.00
2018-12-11T22:38:24.774Z,4.80
2018-12-11T22:40:53.677Z,4.60
2018-12-11T22:43:27.045Z,5.10
2018-12-11T22:45:55.458Z,4.90
2018-12-11T22:48:25.328Z,4.73
2018-12-11T22:50:56.221Z,4.90
2018-12-11T22:53:28.633Z,5.03
2018-12-11T22:56:00.683Z,4.60
2018-12-11T22:58:31.507Z,4.93
2018-12-11T23:01:00.762Z,4.30
2018-12-11T23:03:31.504Z,4.43
2018-12-11T23:06:01.002Z,3.87
2018-12-11T23:08:30.143Z,4.90
2018-12-11T23:10:59.316Z,4.33
2018-12-11T23:13:28.343Z,4.57
2018-12-11T23:15:56.921Z,4.70
2018-12-11T23:18:26.335Z,4.37
2018-12-11T23:20:55.345Z,4.20
2018-12-11T23:23:24.833Z,4.87
2018-12-11T23:25:54.482Z,4.40
2018-12-11T23:28:23.931Z,4.73
2018-12-11T23:30:53.588Z,4.13
2018-12-11T23:33:27.336Z,4.80
2018-12-11T23:35:56.163Z,4.57
2018-12-11T23:38:24.904Z,4.47
2018-12-11T23:40:53.501Z,3.83
2018-12-11T23:43:21.738Z,4.43
2018-12-11T23:45:54.492Z,4.30
2018-12-11T23:48:24.150Z,4.27
2018-12-11T23:50:55.247Z,4.30
2018-12-11T23:53:23.967Z,4.97
2018-12-11T23:55:52.830Z,4.10
2018-12-11T23:58:21.014Z,4.03
